sensor_id;sensor_type;location;lat;lon;timestamp;temperature;humidity
68977;SHT31;56029;52.568;13.588;2023-05-24T00:01:50;10.14;82.82
68977;SHT31;56029;52.568;13.588;2023-05-24T00:04:15;10.14;82.89
68977;SHT31;56029;52.568;13.588;2023-05-24T00:06:43;10.13;82.66
68977;SHT31;56029;52.568;13.588;2023-05-24T00:09:09;10.06;82.60
68977;SHT31;56029;52.568;13.588;2023-05-24T00:11:35;10.07;82.95
68977;SHT31;56029;52.568;13.588;2023-05-24T00:14:01;10.06;82.88
68977;SHT31;56029;52.568;13.588;2023-05-24T00:16:27;10.03;82.92
68977;SHT31;56029;52.568;13.588;2023-05-24T00:18:52;10.06;82.76
68977;SHT31;56029;52.568;13.588;2023-05-24T00:21:19;10.00;82.85
68977;SHT31;56029;52.568;13.588;2023-05-24T00:23:44;10.00;82.83
68977;SHT31;56029;52.568;13.588;2023-05-24T00:26:10;9.98;82.83
68977;SHT31;56029;52.568;13.588;2023-05-24T00:28:36;9.98;82.63
68977;SHT31;56029;52.568;13.588;2023-05-24T00:31:02;9.97;82.64
68977;SHT31;56029;52.568;13.588;2023-05-24T00:33:27;9.98;82.41
68977;SHT31;56029;52.568;13.588;2023-05-24T00:35:54;9.98;82.54
68977;SHT31;56029;52.568;13.588;2023-05-24T00:38:23;9.97;82.48
68977;SHT31;56029;52.568;13.588;2023-05-24T00:40:48;9.96;82.50
68977;SHT31;56029;52.568;13.588;2023-05-24T00:43:14;9.91;82.71
68977;SHT31;56029;52.568;13.588;2023-05-24T00:45:40;9.85;82.75
68977;SHT31;56029;52.568;13.588;2023-05-24T00:48:06;9.79;82.99
68977;SHT31;56029;52.568;13.588;2023-05-24T00:50:32;9.69;83.18
68977;SHT31;56029;52.568;13.588;2023-05-24T00:53:02;9.59;83.38
68977;SHT31;56029;52.568;13.588;2023-05-24T00:55:29;9.48;84.01
68977;SHT31;56029;52.568;13.588;2023-05-24T00:57:56;9.40;84.20
68977;SHT31;56029;52.568;13.588;2023-05-24T01:00:22;9.29;84.28
68977;SHT31;56029;52.568;13.588;2023-05-24T01:02:48;9.25;84.29
68977;SHT31;56029;52.568;13.588;2023-05-24T01:05:16;9.21;84.32
68977;SHT31;56029;52.568;13.588;2023-05-24T01:11:00;9.08;84.77
68977;SHT31;56029;52.568;13.588;2023-05-24T01:13:51;9.05;84.74
68977;SHT31;56029;52.568;13.588;2023-05-24T01:16:26;8.98;84.89
68977;SHT31;56029;52.568;13.588;2023-05-24T01:18:56;8.97;84.85
68977;SHT31;56029;52.568;13.588;2023-05-24T01:24:10;8.88;85.11
68977;SHT31;56029;52.568;13.588;2023-05-24T01:27:04;8.85;85.13
68977;SHT31;56029;52.568;13.588;2023-05-24T01:29:31;8.87;85.19
68977;SHT31;56029;52.568;13.588;2023-05-24T01:31:58;8.79;85.34
68977;SHT31;56029;52.568;13.588;2023-05-24T01:34:27;8.77;85.66
68977;SHT31;56029;52.568;13.588;2023-05-24T01:36:52;8.74;85.56
68977;SHT31;56029;52.568;13.588;2023-05-24T01:39:19;8.76;85.55
68977;SHT31;56029;52.568;13.588;2023-05-24T01:41:58;8.73;85.64
68977;SHT31;56029;52.568;13.588;2023-05-24T01:44:35;8.80;85.35
68977;SHT31;56029;52.568;13.588;2023-05-24T01:47:15;8.84;85.11
68977;SHT31;56029;52.568;13.588;2023-05-24T01:49:49;8.94;84.90
68977;SHT31;56029;52.568;13.588;2023-05-24T01:52:18;8.97;84.89
68977;SHT31;56029;52.568;13.588;2023-05-24T01:54:47;8.98;84.71
68977;SHT31;56029;52.568;13.588;2023-05-24T01:57:18;9.11;84.24
68977;SHT31;56029;52.568;13.588;2023-05-24T01:59:44;9.17;83.94
68977;SHT31;56029;52.568;13.588;2023-05-24T02:02:11;9.27;83.66
68977;SHT31;56029;52.568;13.588;2023-05-24T02:04:36;9.34;83.43
68977;SHT31;56029;52.568;13.588;2023-05-24T02:07:02;9.35;83.66
68977;SHT31;56029;52.568;13.588;2023-05-24T02:09:27;9.40;83.25
68977;SHT31;56029;52.568;13.588;2023-05-24T02:11:53;9.43;83.16
68977;SHT31;56029;52.568;13.588;2023-05-24T02:14:19;9.48;82.93
68977;SHT31;56029;52.568;13.588;2023-05-24T02:16:45;9.56;82.40
68977;SHT31;56029;52.568;13.588;2023-05-24T02:19:12;9.53;82.75
68977;SHT31;56029;52.568;13.588;2023-05-24T02:21:37;9.58;82.78
68977;SHT31;56029;52.568;13.588;2023-05-24T02:24:03;9.59;82.21
68977;SHT31;56029;52.568;13.588;2023-05-24T02:26:29;9.65;81.75
68977;SHT31;56029;52.568;13.588;2023-05-24T02:28:54;9.66;82.37
68977;SHT31;56029;52.568;13.588;2023-05-24T02:31:21;9.69;81.89
68977;SHT31;56029;52.568;13.588;2023-05-24T02:33:47;9.70;81.66
68977;SHT31;56029;52.568;13.588;2023-05-24T02:36:12;9.70;81.92
68977;SHT31;56029;52.568;13.588;2023-05-24T02:38:38;9.72;81.60
68977;SHT31;56029;52.568;13.588;2023-05-24T02:41:04;9.72;82.10
68977;SHT31;56029;52.568;13.588;2023-05-24T02:43:30;9.75;81.94
68977;SHT31;56029;52.568;13.588;2023-05-24T02:45:55;9.72;82.07
68977;SHT31;56029;52.568;13.588;2023-05-24T02:48:21;9.75;82.34
68977;SHT31;56029;52.568;13.588;2023-05-24T02:50:46;9.75;82.14
68977;SHT31;56029;52.568;13.588;2023-05-24T02:53:12;9.75;82.14
68977;SHT31;56029;52.568;13.588;2023-05-24T02:55:37;9.76;82.17
68977;SHT31;56029;52.568;13.588;2023-05-24T02:58:03;9.75;82.29
68977;SHT31;56029;52.568;13.588;2023-05-24T03:00:29;9.76;82.36
68977;SHT31;56029;52.568;13.588;2023-05-24T03:02:54;9.76;82.59
68977;SHT31;56029;52.568;13.588;2023-05-24T03:05:21;9.77;82.41
68977;SHT31;56029;52.568;13.588;2023-05-24T03:07:46;9.77;82.64
68977;SHT31;56029;52.568;13.588;2023-05-24T03:10:12;9.80;82.26
68977;SHT31;56029;52.568;13.588;2023-05-24T03:12:37;9.77;82.47
68977;SHT31;56029;52.568;13.588;2023-05-24T03:15:03;9.77;82.46
68977;SHT31;56029;52.568;13.588;2023-05-24T03:17:29;9.79;82.64
68977;SHT31;56029;52.568;13.588;2023-05-24T03:19:54;9.77;82.79
68977;SHT31;56029;52.568;13.588;2023-05-24T03:22:20;9.80;82.71
68977;SHT31;56029;52.568;13.588;2023-05-24T03:24:45;9.80;82.60
68977;SHT31;56029;52.568;13.588;2023-05-24T03:27:11;9.79;83.06
68977;SHT31;56029;52.568;13.588;2023-05-24T03:29:36;9.79;82.83
68977;SHT31;56029;52.568;13.588;2023-05-24T03:32:02;9.80;83.13
68977;SHT31;56029;52.568;13.588;2023-05-24T03:34:28;9.85;83.36
68977;SHT31;56029;52.568;13.588;2023-05-24T03:36:54;9.86;83.58
68977;SHT31;56029;52.568;13.588;2023-05-24T03:39:20;9.87;83.51
68977;SHT31;56029;52.568;13.588;2023-05-24T03:41:45;9.83;83.59
68977;SHT31;56029;52.568;13.588;2023-05-24T03:44:11;9.83;83.90
68977;SHT31;56029;52.568;13.588;2023-05-24T03:46:37;9.87;84.10
68977;SHT31;56029;52.568;13.588;2023-05-24T03:49:02;9.91;84.05
68977;SHT31;56029;52.568;13.588;2023-05-24T03:51:28;9.90;84.12
68977;SHT31;56029;52.568;13.588;2023-05-24T03:53:55;9.91;84.40
68977;SHT31;56029;52.568;13.588;2023-05-24T03:56:21;9.87;84.14
68977;SHT31;56029;52.568;13.588;2023-05-24T03:58:47;9.89;84.43
68977;SHT31;56029;52.568;13.588;2023-05-24T04:01:12;9.97;84.49
68977;SHT31;56029;52.568;13.588;2023-05-24T04:03:38;9.91;84.15
68977;SHT31;56029;52.568;13.588;2023-05-24T04:06:04;9.96;84.33
68977;SHT31;56029;52.568;13.588;2023-05-24T04:08:30;9.98;84.81
68977;SHT31;56029;52.568;13.588;2023-05-24T04:10:56;10.03;84.48
68977;SHT31;56029;52.568;13.588;2023-05-24T04:13:21;10.06;84.05
68977;SHT31;56029;52.568;13.588;2023-05-24T04:15:47;10.03;84.34
68977;SHT31;56029;52.568;13.588;2023-05-24T04:18:12;10.10;84.15
68977;SHT31;56029;52.568;13.588;2023-05-24T04:20:38;10.07;83.99
68977;SHT31;56029;52.568;13.588;2023-05-24T04:23:03;10.11;84.00
68977;SHT31;56029;52.568;13.588;2023-05-24T04:25:29;10.14;83.37
68977;SHT31;56029;52.568;13.588;2023-05-24T04:27:55;10.21;83.72
68977;SHT31;56029;52.568;13.588;2023-05-24T04:30:21;10.31;83.34
68977;SHT31;56029;52.568;13.588;2023-05-24T04:32:47;10.24;83.18
68977;SHT31;56029;52.568;13.588;2023-05-24T04:35:13;10.20;83.11
68977;SHT31;56029;52.568;13.588;2023-05-24T04:37:39;10.08;83.40
68977;SHT31;56029;52.568;13.588;2023-05-24T04:40:08;10.06;83.48
68977;SHT31;56029;52.568;13.588;2023-05-24T04:42:35;10.14;83.64
68977;SHT31;56029;52.568;13.588;2023-05-24T04:45:00;10.25;83.57
68977;SHT31;56029;52.568;13.588;2023-05-24T04:47:26;10.55;81.92
68977;SHT31;56029;52.568;13.588;2023-05-24T04:49:52;10.38;81.80
68977;SHT31;56029;52.568;13.588;2023-05-24T04:52:18;10.25;82.22
68977;SHT31;56029;52.568;13.588;2023-05-24T04:54:43;10.34;82.47
68977;SHT31;56029;52.568;13.588;2023-05-24T04:57:09;10.37;82.24
68977;SHT31;56029;52.568;13.588;2023-05-24T04:59:35;10.33;81.90
68977;SHT31;56029;52.568;13.588;2023-05-24T05:02:00;10.40;81.95
68977;SHT31;56029;52.568;13.588;2023-05-24T05:04:26;10.46;81.90
68977;SHT31;56029;52.568;13.588;2023-05-24T05:06:51;10.41;81.70
68977;SHT31;56029;52.568;13.588;2023-05-24T05:09:17;10.28;81.76
68977;SHT31;56029;52.568;13.588;2023-05-24T05:11:45;10.28;81.73
68977;SHT31;56029;52.568;13.588;2023-05-24T05:14:10;10.31;80.99
68977;SHT31;56029;52.568;13.588;2023-05-24T05:16:37;10.28;81.28
68977;SHT31;56029;52.568;13.588;2023-05-24T05:19:03;10.22;81.15
68977;SHT31;56029;52.568;13.588;2023-05-24T05:21:32;10.30;81.19
68977;SHT31;56029;52.568;13.588;2023-05-24T05:24:01;10.28;80.87
68977;SHT31;56029;52.568;13.588;2023-05-24T05:26:28;10.28;80.95
68977;SHT31;56029;52.568;13.588;2023-05-24T05:28:54;10.25;81.21
68977;SHT31;56029;52.568;13.588;2023-05-24T05:31:20;10.38;81.16
68977;SHT31;56029;52.568;13.588;2023-05-24T05:33:46;10.46;80.57
68977;SHT31;56029;52.568;13.588;2023-05-24T05:36:11;10.48;80.52
68977;SHT31;56029;52.568;13.588;2023-05-24T05:38:37;10.41;80.56
68977;SHT31;56029;52.568;13.588;2023-05-24T05:41:03;10.51;80.50
68977;SHT31;56029;52.568;13.588;2023-05-24T05:43:28;10.55;80.68
68977;SHT31;56029;52.568;13.588;2023-05-24T05:45:54;10.51;80.32
68977;SHT31;56029;52.568;13.588;2023-05-24T05:48:20;10.48;80.73
68977;SHT31;56029;52.568;13.588;2023-05-24T05:50:46;10.54;80.77
68977;SHT31;56029;52.568;13.588;2023-05-24T05:53:11;10.45;80.37
68977;SHT31;56029;52.568;13.588;2023-05-24T05:55:37;10.49;80.65
68977;SHT31;56029;52.568;13.588;2023-05-24T05:58:02;10.55;80.64
68977;SHT31;56029;52.568;13.588;2023-05-24T06:00:28;10.64;80.45
68977;SHT31;56029;52.568;13.588;2023-05-24T06:02:54;10.64;80.27
68977;SHT31;56029;52.568;13.588;2023-05-24T06:05:19;10.59;80.42
68977;SHT31;56029;52.568;13.588;2023-05-24T06:07:45;10.56;79.93
68977;SHT31;56029;52.568;13.588;2023-05-24T06:10:12;10.58;80.41
68977;SHT31;56029;52.568;13.588;2023-05-24T06:12:37;10.49;80.02
68977;SHT31;56029;52.568;13.588;2023-05-24T06:15:06;10.61;80.01
68977;SHT31;56029;52.568;13.588;2023-05-24T06:17:32;10.69;79.68
68977;SHT31;56029;52.568;13.588;2023-05-24T06:19:59;10.80;79.94
68977;SHT31;56029;52.568;13.588;2023-05-24T06:22:25;11.14;80.24
68977;SHT31;56029;52.568;13.588;2023-05-24T06:24:54;10.89;79.08
68977;SHT31;56029;52.568;13.588;2023-05-24T06:27:19;10.73;79.11
68977;SHT31;56029;52.568;13.588;2023-05-24T06:29:45;10.92;79.16
68977;SHT31;56029;52.568;13.588;2023-05-24T06:32:11;11.02;78.57
68977;SHT31;56029;52.568;13.588;2023-05-24T06:34:36;11.26;78.63
68977;SHT31;56029;52.568;13.588;2023-05-24T06:37:02;11.41;77.65
68977;SHT31;56029;52.568;13.588;2023-05-24T06:39:28;11.31;78.07
68977;SHT31;56029;52.568;13.588;2023-05-24T06:41:53;11.27;78.28
68977;SHT31;56029;52.568;13.588;2023-05-24T06:44:19;11.37;77.70
68977;SHT31;56029;52.568;13.588;2023-05-24T06:46:46;11.43;78.34
68977;SHT31;56029;52.568;13.588;2023-05-24T06:49:12;11.45;77.63
68977;SHT31;56029;52.568;13.588;2023-05-24T06:51:37;11.33;77.61
68977;SHT31;56029;52.568;13.588;2023-05-24T06:54:03;11.31;77.88
68977;SHT31;56029;52.568;13.588;2023-05-24T06:56:29;11.48;78.58
68977;SHT31;56029;52.568;13.588;2023-05-24T06:58:55;11.82;78.74
68977;SHT31;56029;52.568;13.588;2023-05-24T07:01:21;11.85;77.63
68977;SHT31;56029;52.568;13.588;2023-05-24T07:03:47;11.78;76.33
68977;SHT31;56029;52.568;13.588;2023-05-24T07:06:14;11.81;75.89
68977;SHT31;56029;52.568;13.588;2023-05-24T07:08:40;11.64;76.73
68977;SHT31;56029;52.568;13.588;2023-05-24T07:11:06;11.71;77.33
68977;SHT31;56029;52.568;13.588;2023-05-24T07:13:32;12.09;77.08
68977;SHT31;56029;52.568;13.588;2023-05-24T07:15:57;12.33;76.89
68977;SHT31;56029;52.568;13.588;2023-05-24T07:18:23;12.22;74.53
68977;SHT31;56029;52.568;13.588;2023-05-24T07:20:49;12.16;75.17
68977;SHT31;56029;52.568;13.588;2023-05-24T07:23:14;12.16;75.32
68977;SHT31;56029;52.568;13.588;2023-05-24T07:25:40;12.46;74.91
68977;SHT31;56029;52.568;13.588;2023-05-24T07:28:06;12.37;74.81
68977;SHT31;56029;52.568;13.588;2023-05-24T07:30:31;12.30;74.84
68977;SHT31;56029;52.568;13.588;2023-05-24T07:32:57;12.23;74.78
68977;SHT31;56029;52.568;13.588;2023-05-24T07:35:22;12.01;76.07
68977;SHT31;56029;52.568;13.588;2023-05-24T07:37:48;11.92;76.31
68977;SHT31;56029;52.568;13.588;2023-05-24T07:40:13;12.01;77.46
68977;SHT31;56029;52.568;13.588;2023-05-24T07:42:40;12.25;76.40
68977;SHT31;56029;52.568;13.588;2023-05-24T07:45:07;12.20;75.36
68977;SHT31;56029;52.568;13.588;2023-05-24T07:47:33;12.32;76.08
68977;SHT31;56029;52.568;13.588;2023-05-24T07:49:59;12.25;76.56
68977;SHT31;56029;52.568;13.588;2023-05-24T07:52:25;12.44;76.66
68977;SHT31;56029;52.568;13.588;2023-05-24T07:54:50;12.59;75.48
68977;SHT31;56029;52.568;13.588;2023-05-24T07:57:19;12.43;75.33
68977;SHT31;56029;52.568;13.588;2023-05-24T07:59:45;12.18;76.09
68977;SHT31;56029;52.568;13.588;2023-05-24T08:02:11;12.40;76.50
68977;SHT31;56029;52.568;13.588;2023-05-24T08:04:38;12.53;75.00
68977;SHT31;56029;52.568;13.588;2023-05-24T08:07:04;12.43;75.55
68977;SHT31;56029;52.568;13.588;2023-05-24T08:09:31;12.74;75.43
68977;SHT31;56029;52.568;13.588;2023-05-24T08:12:02;12.76;72.90
68977;SHT31;56029;52.568;13.588;2023-05-24T08:14:28;12.88;73.67
68977;SHT31;56029;52.568;13.588;2023-05-24T08:16:53;12.83;74.23
68977;SHT31;56029;52.568;13.588;2023-05-24T08:19:19;12.73;74.89
68977;SHT31;56029;52.568;13.588;2023-05-24T08:21:45;13.05;73.37
68977;SHT31;56029;52.568;13.588;2023-05-24T08:24:11;13.14;73.90
68977;SHT31;56029;52.568;13.588;2023-05-24T08:26:36;12.67;73.74
68977;SHT31;56029;52.568;13.588;2023-05-24T08:29:02;12.77;74.46
68977;SHT31;56029;52.568;13.588;2023-05-24T08:31:28;12.56;73.51
68977;SHT31;56029;52.568;13.588;2023-05-24T08:33:53;12.51;74.00
68977;SHT31;56029;52.568;13.588;2023-05-24T08:36:20;12.37;74.74
68977;SHT31;56029;52.568;13.588;2023-05-24T08:38:46;12.57;74.96
68977;SHT31;56029;52.568;13.588;2023-05-24T08:41:12;12.49;73.79
68977;SHT31;56029;52.568;13.588;2023-05-24T08:43:37;12.56;73.07
68977;SHT31;56029;52.568;13.588;2023-05-24T08:46:04;12.64;72.86
68977;SHT31;56029;52.568;13.588;2023-05-24T08:48:30;12.98;72.42
68977;SHT31;56029;52.568;13.588;2023-05-24T08:50:57;13.18;73.92
68977;SHT31;56029;52.568;13.588;2023-05-24T08:53:23;13.23;71.85
68977;SHT31;56029;52.568;13.588;2023-05-24T08:55:49;13.80;72.14
68977;SHT31;56029;52.568;13.588;2023-05-24T08:58:18;14.04;69.24
68977;SHT31;56029;52.568;13.588;2023-05-24T09:00:44;14.10;70.43
68977;SHT31;56029;52.568;13.588;2023-05-24T09:03:11;14.01;68.53
68977;SHT31;56029;52.568;13.588;2023-05-24T09:05:39;13.59;70.61
68977;SHT31;56029;52.568;13.588;2023-05-24T09:08:05;13.57;71.30
68977;SHT31;56029;52.568;13.588;2023-05-24T09:10:31;13.69;71.25
68977;SHT31;56029;52.568;13.588;2023-05-24T09:13:00;13.30;71.59
68977;SHT31;56029;52.568;13.588;2023-05-24T09:15:26;13.26;71.62
68977;SHT31;56029;52.568;13.588;2023-05-24T09:17:52;13.12;70.15
68977;SHT31;56029;52.568;13.588;2023-05-24T09:20:19;13.14;71.44
68977;SHT31;56029;52.568;13.588;2023-05-24T09:22:49;13.32;71.89
68977;SHT31;56029;52.568;13.588;2023-05-24T09:25:17;13.28;71.42
68977;SHT31;56029;52.568;13.588;2023-05-24T09:27:49;13.20;71.56
68977;SHT31;56029;52.568;13.588;2023-05-24T09:30:15;13.42;71.02
68977;SHT31;56029;52.568;13.588;2023-05-24T09:32:42;13.60;71.14
68977;SHT31;56029;52.568;13.588;2023-05-24T09:35:18;13.91;69.59
68977;SHT31;56029;52.568;13.588;2023-05-24T09:37:44;13.76;69.13
68977;SHT31;56029;52.568;13.588;2023-05-24T09:40:18;13.77;70.04
68977;SHT31;56029;52.568;13.588;2023-05-24T09:42:44;13.87;69.78
68977;SHT31;56029;52.568;13.588;2023-05-24T09:45:11;13.90;69.15
68977;SHT31;56029;52.568;13.588;2023-05-24T09:47:38;13.83;68.51
68977;SHT31;56029;52.568;13.588;2023-05-24T09:50:10;13.86;69.00
68977;SHT31;56029;52.568;13.588;2023-05-24T09:52:37;13.78;68.44
68977;SHT31;56029;52.568;13.588;2023-05-24T09:55:18;13.71;67.86
68977;SHT31;56029;52.568;13.588;2023-05-24T09:58:00;13.97;69.15
68977;SHT31;56029;52.568;13.588;2023-05-24T10:00:26;13.77;68.70
68977;SHT31;56029;52.568;13.588;2023-05-24T10:03:05;14.22;68.80
68977;SHT31;56029;52.568;13.588;2023-05-24T10:05:32;14.45;69.02
68977;SHT31;56029;52.568;13.588;2023-05-24T10:07:58;13.94;67.59
68977;SHT31;56029;52.568;13.588;2023-05-24T10:10:29;13.94;69.81
68977;SHT31;56029;52.568;13.588;2023-05-24T10:12:56;14.08;69.06
68977;SHT31;56029;52.568;13.588;2023-05-24T10:15:22;13.62;69.11
68977;SHT31;56029;52.568;13.588;2023-05-24T10:17:50;13.57;70.87
68977;SHT31;56029;52.568;13.588;2023-05-24T10:20:16;13.57;69.92
68977;SHT31;56029;52.568;13.588;2023-05-24T10:22:45;13.39;68.65
68977;SHT31;56029;52.568;13.588;2023-05-24T10:25:20;13.50;68.22
68977;SHT31;56029;52.568;13.588;2023-05-24T10:27:48;13.69;67.55
68977;SHT31;56029;52.568;13.588;2023-05-24T10:30:35;14.27;69.48
68977;SHT31;56029;52.568;13.588;2023-05-24T10:33:03;14.22;67.62
68977;SHT31;56029;52.568;13.588;2023-05-24T10:35:31;14.11;66.27
68977;SHT31;56029;52.568;13.588;2023-05-24T10:37:58;14.25;67.38
68977;SHT31;56029;52.568;13.588;2023-05-24T10:40:24;14.32;65.95
68977;SHT31;56029;52.568;13.588;2023-05-24T10:42:50;14.35;66.78
68977;SHT31;56029;52.568;13.588;2023-05-24T10:45:38;14.29;66.99
68977;SHT31;56029;52.568;13.588;2023-05-24T10:48:30;14.72;68.70
68977;SHT31;56029;52.568;13.588;2023-05-24T10:50:54;14.56;65.35
68977;SHT31;56029;52.568;13.588;2023-05-24T10:53:25;14.39;67.63
68977;SHT31;56029;52.568;13.588;2023-05-24T10:55:54;14.42;67.60
68977;SHT31;56029;52.568;13.588;2023-05-24T10:58:21;14.15;67.49
68977;SHT31;56029;52.568;13.588;2023-05-24T11:00:50;14.13;67.29
68977;SHT31;56029;52.568;13.588;2023-05-24T11:03:17;14.22;67.32
68977;SHT31;56029;52.568;13.588;2023-05-24T11:05:52;14.35;67.90
68977;SHT31;56029;52.568;13.588;2023-05-24T11:08:31;14.24;66.64
68977;SHT31;56029;52.568;13.588;2023-05-24T11:11:11;14.07;67.59
68977;SHT31;56029;52.568;13.588;2023-05-24T11:13:37;14.07;68.13
68977;SHT31;56029;52.568;13.588;2023-05-24T11:16:06;13.97;68.27
68977;SHT31;56029;52.568;13.588;2023-05-24T11:18:32;14.08;67.71
68977;SHT31;56029;52.568;13.588;2023-05-24T11:21:06;14.13;69.14
68977;SHT31;56029;52.568;13.588;2023-05-24T11:23:32;14.36;68.66
68977;SHT31;56029;52.568;13.588;2023-05-24T11:25:58;14.07;67.90
68977;SHT31;56029;52.568;13.588;2023-05-24T11:28:24;14.24;69.77
68977;SHT31;56029;52.568;13.588;2023-05-24T11:30:49;14.24;69.63
68977;SHT31;56029;52.568;13.588;2023-05-24T11:33:19;14.45;71.25
68977;SHT31;56029;52.568;13.588;2023-05-24T11:35:50;14.62;69.43
68977;SHT31;56029;52.568;13.588;2023-05-24T11:38:17;14.77;67.20
68977;SHT31;56029;52.568;13.588;2023-05-24T11:40:44;14.77;66.47
68977;SHT31;56029;52.568;13.588;2023-05-24T11:43:16;14.62;65.66
68977;SHT31;56029;52.568;13.588;2023-05-24T11:45:48;14.99;67.10
68977;SHT31;56029;52.568;13.588;2023-05-24T11:48:14;14.89;66.96
68977;SHT31;56029;52.568;13.588;2023-05-24T11:50:42;15.58;67.43
68977;SHT31;56029;52.568;13.588;2023-05-24T11:53:16;16.05;65.81
68977;SHT31;56029;52.568;13.588;2023-05-24T11:55:42;16.39;65.82
68977;SHT31;56029;52.568;13.588;2023-05-24T11:58:21;16.23;63.75
68977;SHT31;56029;52.568;13.588;2023-05-24T12:00:48;16.20;62.72
68977;SHT31;56029;52.568;13.588;2023-05-24T12:03:14;16.21;60.75
68977;SHT31;56029;52.568;13.588;2023-05-24T12:05:42;15.89;62.76
68977;SHT31;56029;52.568;13.588;2023-05-24T12:08:10;15.98;63.42
68977;SHT31;56029;52.568;13.588;2023-05-24T12:10:38;16.36;61.57
68977;SHT31;56029;52.568;13.588;2023-05-24T12:13:05;16.67;61.68
68977;SHT31;56029;52.568;13.588;2023-05-24T12:15:31;16.77;61.06
68977;SHT31;56029;52.568;13.588;2023-05-24T12:17:57;16.87;61.66
68977;SHT31;56029;52.568;13.588;2023-05-24T12:20:26;16.78;59.20
68977;SHT31;56029;52.568;13.588;2023-05-24T12:22:53;16.72;61.47
68977;SHT31;56029;52.568;13.588;2023-05-24T12:25:20;16.77;61.65
68977;SHT31;56029;52.568;13.588;2023-05-24T12:27:55;16.47;60.39
68977;SHT31;56029;52.568;13.588;2023-05-24T12:30:23;16.02;60.65
68977;SHT31;56029;52.568;13.588;2023-05-24T12:32:49;15.57;61.92
68977;SHT31;56029;52.568;13.588;2023-05-24T12:35:21;15.58;63.21
68977;SHT31;56029;52.568;13.588;2023-05-24T12:37:48;15.51;62.95
68977;SHT31;56029;52.568;13.588;2023-05-24T12:40:18;15.52;64.34
68977;SHT31;56029;52.568;13.588;2023-05-24T12:42:55;15.31;64.02
68977;SHT31;56029;52.568;13.588;2023-05-24T12:45:23;15.35;64.95
68977;SHT31;56029;52.568;13.588;2023-05-24T12:47:54;15.42;64.68
68977;SHT31;56029;52.568;13.588;2023-05-24T12:50:22;15.54;64.36
68977;SHT31;56029;52.568;13.588;2023-05-24T12:52:48;15.61;63.86
68977;SHT31;56029;52.568;13.588;2023-05-24T12:55:26;15.75;64.26
68977;SHT31;56029;52.568;13.588;2023-05-24T12:57:53;15.75;62.93
68977;SHT31;56029;52.568;13.588;2023-05-24T13:00:24;15.69;62.57
68977;SHT31;56029;52.568;13.588;2023-05-24T13:02:51;15.85;62.77
68977;SHT31;56029;52.568;13.588;2023-05-24T13:05:21;16.05;61.36
68977;SHT31;56029;52.568;13.588;2023-05-24T13:07:47;15.81;60.83
68977;SHT31;56029;52.568;13.588;2023-05-24T13:10:12;15.91;61.57
68977;SHT31;56029;52.568;13.588;2023-05-24T13:12:38;16.14;60.70
68977;SHT31;56029;52.568;13.588;2023-05-24T13:15:06;16.34;60.88
68977;SHT31;56029;52.568;13.588;2023-05-24T13:17:33;16.44;60.60
68977;SHT31;56029;52.568;13.588;2023-05-24T13:20:02;16.47;58.83
68977;SHT31;56029;52.568;13.588;2023-05-24T13:22:30;16.57;59.27
68977;SHT31;56029;52.568;13.588;2023-05-24T13:24:56;16.46;58.71
68977;SHT31;56029;52.568;13.588;2023-05-24T13:27:21;16.78;61.48
68977;SHT31;56029;52.568;13.588;2023-05-24T13:29:47;16.94;58.50
68977;SHT31;56029;52.568;13.588;2023-05-24T13:32:13;16.99;57.85
68977;SHT31;56029;52.568;13.588;2023-05-24T13:34:39;16.96;59.37
68977;SHT31;56029;52.568;13.588;2023-05-24T13:37:05;17.14;58.16
68977;SHT31;56029;52.568;13.588;2023-05-24T13:39:32;16.77;58.85
68977;SHT31;56029;52.568;13.588;2023-05-24T13:41:57;16.54;59.74
68977;SHT31;56029;52.568;13.588;2023-05-24T13:44:25;16.56;59.86
68977;SHT31;56029;52.568;13.588;2023-05-24T13:46:50;16.26;60.06
68977;SHT31;56029;52.568;13.588;2023-05-24T13:49:16;15.96;60.72
68977;SHT31;56029;52.568;13.588;2023-05-24T13:51:42;15.93;60.98
68977;SHT31;56029;52.568;13.588;2023-05-24T13:54:08;15.82;61.35
68977;SHT31;56029;52.568;13.588;2023-05-24T13:56:34;16.10;61.23
68977;SHT31;56029;52.568;13.588;2023-05-24T13:59:01;16.29;59.86
68977;SHT31;56029;52.568;13.588;2023-05-24T14:01:27;16.26;59.43
68977;SHT31;56029;52.568;13.588;2023-05-24T14:03:53;16.03;59.35
68977;SHT31;56029;52.568;13.588;2023-05-24T14:06:18;16.02;60.05
68977;SHT31;56029;52.568;13.588;2023-05-24T14:08:45;15.93;60.68
68977;SHT31;56029;52.568;13.588;2023-05-24T14:11:11;15.92;59.41
68977;SHT31;56029;52.568;13.588;2023-05-24T14:13:39;15.75;59.46
68977;SHT31;56029;52.568;13.588;2023-05-24T14:16:06;15.88;59.76
68977;SHT31;56029;52.568;13.588;2023-05-24T14:18:32;16.12;59.03
68977;SHT31;56029;52.568;13.588;2023-05-24T14:20:57;16.47;59.12
68977;SHT31;56029;52.568;13.588;2023-05-24T14:23:23;16.85;58.05
68977;SHT31;56029;52.568;13.588;2023-05-24T14:25:48;17.20;56.60
68977;SHT31;56029;52.568;13.588;2023-05-24T14:28:17;17.12;57.29
68977;SHT31;56029;52.568;13.588;2023-05-24T14:30:42;17.12;56.05
68977;SHT31;56029;52.568;13.588;2023-05-24T14:33:08;17.26;56.25
68977;SHT31;56029;52.568;13.588;2023-05-24T14:35:35;17.39;56.24
68977;SHT31;56029;52.568;13.588;2023-05-24T14:38:08;17.49;56.18
68977;SHT31;56029;52.568;13.588;2023-05-24T14:40:35;17.51;57.10
68977;SHT31;56029;52.568;13.588;2023-05-24T14:43:03;17.37;56.43
68977;SHT31;56029;52.568;13.588;2023-05-24T14:45:28;17.23;57.20
68977;SHT31;56029;52.568;13.588;2023-05-24T14:47:54;17.16;56.69
68977;SHT31;56029;52.568;13.588;2023-05-24T14:50:19;17.07;58.06
68977;SHT31;56029;52.568;13.588;2023-05-24T14:52:45;16.71;58.95
68977;SHT31;56029;52.568;13.588;2023-05-24T14:55:11;16.51;60.08
68977;SHT31;56029;52.568;13.588;2023-05-24T14:57:37;16.67;59.40
68977;SHT31;56029;52.568;13.588;2023-05-24T15:00:03;16.68;59.89
68977;SHT31;56029;52.568;13.588;2023-05-24T15:02:28;16.75;58.80
68977;SHT31;56029;52.568;13.588;2023-05-24T15:04:54;17.11;60.12
68977;SHT31;56029;52.568;13.588;2023-05-24T15:07:20;17.20;57.37
68977;SHT31;56029;52.568;13.588;2023-05-24T15:09:46;16.96;57.35
68977;SHT31;56029;52.568;13.588;2023-05-24T15:12:12;17.18;59.23
68977;SHT31;56029;52.568;13.588;2023-05-24T15:14:37;17.16;57.69
68977;SHT31;56029;52.568;13.588;2023-05-24T15:17:03;17.30;58.07
68977;SHT31;56029;52.568;13.588;2023-05-24T15:19:29;17.40;57.47
68977;SHT31;56029;52.568;13.588;2023-05-24T15:21:54;17.49;58.18
68977;SHT31;56029;52.568;13.588;2023-05-24T15:24:20;17.77;58.30
68977;SHT31;56029;52.568;13.588;2023-05-24T15:26:45;18.05;57.63